Time;durP1;ratioP1;P1;durP2;ratioP2;P2;SDS_P1;SDS_P2;PMS_P1;PMS_P2;Temp;Humidity;BMP_temperature;BMP_pressure;BME280_temperature;BME280_humidity;BME280_pressure;Samples;Min_cycle;Max_cycle;Signal;HPM_P1;HPM_P2
2022/10/19 00:01:26;;;;;;;4.05;1.02;;;32.60;42.10;;;;;;5093632;28;20055;-65
2022/10/19 00:03:54;;;;;;;3.90;0.88;;;32.60;42.60;;;;;;5091596;28;20466;-65
2022/10/19 00:06:29;;;;;;;4.97;0.90;;;32.60;42.30;;;;;;5095011;28;20067;-67
2022/10/19 00:09:04;;;;;;;4.20;1.90;;;32.40;42.70;;;;;;5091384;28;20071;-67
2022/10/19 00:11:32;;;;;;;26.40;12.52;;;32.40;43.00;;;;;;5090610;28;20087;-66
2022/10/19 00:14:00;;;;;;;15.00;5.97;;;32.40;43.00;;;;;;5092301;28;20216;-68
2022/10/19 00:16:30;;;;;;;9.50;4.75;;;32.30;43.20;;;;;;5087075;28;20111;-67
2022/10/19 00:18:58;;;;;;;18.55;6.45;;;32.30;42.80;;;;;;5087085;28;20075;-66
2022/10/19 00:21:25;;;;;;;7.93;3.70;;;32.20;42.90;;;;;;5091042;28;20079;-67
2022/10/19 00:23:52;;;;;;;2.78;1.42;;;32.10;42.80;;;;;;5086298;28;20070;-67
2022/10/19 00:26:19;;;;;;;21.27;2.33;;;32.00;42.90;;;;;;5089615;28;20075;-68
2022/10/19 00:28:45;;;;;;;7.53;1.33;;;31.90;43.40;;;;;;5089552;28;20072;-68
2022/10/19 00:31:15;;;;;;;8.32;1.83;;;31.90;43.70;;;;;;5092401;28;20162;-64
2022/10/19 00:33:45;;;;;;;5.97;1.30;;;31.90;44.10;;;;;;5093737;28;20095;-67
2022/10/19 00:36:21;;;;;;;7.00;1.30;;;31.80;44.60;;;;;;5090829;28;20094;-67
2022/10/19 00:38:47;;;;;;;12.07;1.85;;;31.70;44.40;;;;;;5091522;28;20074;-67
2022/10/19 00:41:15;;;;;;;33.35;2.63;;;31.70;44.90;;;;;;5093361;28;20087;-68
2022/10/19 00:43:56;;;;;;;21.95;2.45;;;31.60;45.00;;;;;;5091331;28;20071;-69
2022/10/19 00:46:24;;;;;;;7.47;1.45;;;31.50;45.80;;;;;;5093193;28;20064;-66
2022/10/19 00:48:53;;;;;;;6.07;1.17;;;31.40;45.10;;;;;;5092956;28;20201;-64
2022/10/19 00:51:21;;;;;;;12.70;1.20;;;31.30;45.00;;;;;;5092682;28;20534;-65
2022/10/19 00:53:47;;;;;;;5.05;1.05;;;31.20;45.60;;;;;;5095930;28;20094;-66
2022/10/19 00:56:15;;;;;;;6.18;1.85;;;31.20;46.70;;;;;;5098641;28;20436;-65
2022/10/19 00:58:43;;;;;;;6.75;1.50;;;31.00;46.60;;;;;;5089362;28;20078;-62
2022/10/19 01:01:12;;;;;;;3.47;1.20;;;31.00;46.70;;;;;;5088883;28;20102;-63
2022/10/19 01:03:39;;;;;;;15.50;1.90;;;30.90;47.20;;;;;;5088417;28;20069;-63
2022/10/19 01:06:06;;;;;;;9.07;1.60;;;30.80;46.90;;;;;;5091880;28;20671;-63
2022/10/19 01:08:32;;;;;;;11.60;2.20;;;30.70;47.20;;;;;;5089595;28;20771;-64
2022/10/19 01:11:17;;;;;;;9.52;2.83;;;30.60;47.30;;;;;;5086430;28;20079;-63
2022/10/19 01:14:18;;;;;;;5.70;1.85;;;30.50;47.70;;;;;;5095131;28;20120;-64
2022/10/19 01:16:53;;;;;;;8.52;1.63;;;30.40;48.40;;;;;;5095453;28;20132;-62
2022/10/19 01:19:47;;;;;;;4.53;1.52;;;30.30;47.70;;;;;;5096004;28;20124;-65
2022/10/19 01:22:52;;;;;;;6.30;1.70;;;30.20;48.60;;;;;;5096981;28;20201;-63
2022/10/19 01:25:22;;;;;;;8.57;2.03;;;30.10;48.70;;;;;;5097131;28;20123;-66
2022/10/19 01:28:07;;;;;;;7.47;2.47;;;30.00;50.20;;;;;;5097098;28;20064;-68
2022/10/19 01:30:49;;;;;;;5.30;2.40;;;29.90;49.90;;;;;;5091109;28;20122;-66
2022/10/19 01:33:24;;;;;;;4.70;2.42;;;29.80;50.00;;;;;;5097066;28;20076;-65
2022/10/19 01:36:18;;;;;;;13.88;2.50;;;29.80;49.70;;;;;;5089828;28;20156;-65
2022/10/19 01:39:18;;;;;;;12.68;2.97;;;29.70;50.90;;;;;;5093791;28;20085;-64
2022/10/19 01:42:01;;;;;;;10.32;2.17;;;29.60;51.00;;;;;;5090763;28;20113;-65
2022/10/19 01:44:54;;;;;;;9.23;2.03;;;29.60;50.60;;;;;;5090662;28;20531;-62
2022/10/19 01:47:36;;;;;;;11.02;1.70;;;29.40;50.60;;;;;;5088252;28;20481;-66
2022/10/19 01:50:38;;;;;;;11.57;1.50;;;30.10;51.80;;;;;;5088636;28;20066;-65
2022/10/19 01:53:08;;;;;;;3.88;1.55;;;29.30;51.30;;;;;;5065296;28;20555;-67
2022/10/19 01:55:41;;;;;;;6.50;1.50;;;29.30;51.60;;;;;;5091068;28;20084;-62
2022/10/19 01:58:12;;;;;;;7.95;1.52;;;29.20;53.00;;;;;;5090619;28;20082;-68
2022/10/19 02:00:41;;;;;;;18.98;1.35;;;29.10;52.80;;;;;;5089437;28;20095;-64
2022/10/19 02:03:09;;;;;;;7.32;1.40;;;29.10;53.80;;;;;;5088057;28;20078;-64
2022/10/19 02:05:37;;;;;;;11.60;1.73;;;28.90;53.80;;;;;;5088138;28;20068;-66
2022/10/19 02:08:16;;;;;;;27.88;3.53;;;28.90;54.60;;;;;;5088183;28;20072;-64
2022/10/19 02:10:44;;;;;;;10.35;2.10;;;28.80;54.60;;;;;;5089264;28;20071;-65
2022/10/19 02:13:14;;;;;;;12.57;2.63;;;28.70;54.80;;;;;;5090502;28;20201;-66
2022/10/19 02:15:45;;;;;;;13.10;2.55;;;28.70;54.90;;;;;;5086570;28;20118;-61
2022/10/19 02:18:17;;;;;;;16.33;2.90;;;28.60;55.20;;;;;;5084972;28;20627;-65
2022/10/19 02:20:45;;;;;;;11.73;2.05;;;28.50;55.30;;;;;;5087625;28;20087;-64
2022/10/19 02:23:14;;;;;;;17.23;3.03;;;28.50;55.80;;;;;;5091530;28;20481;-68
2022/10/19 02:25:40;;;;;;;8.95;2.25;;;28.50;55.70;;;;;;5086017;28;20525;-67
2022/10/19 02:28:07;;;;;;;16.75;2.90;;;28.40;55.90;;;;;;5081696;28;20428;-66
2022/10/19 02:30:33;;;;;;;17.35;3.08;;;28.40;56.80;;;;;;5087489;28;20547;-69
2022/10/19 02:33:00;;;;;;;14.23;2.63;;;28.30;56.70;;;;;;5090212;28;20086;-68
2022/10/19 02:35:27;;;;;;;18.85;2.95;;;28.30;56.50;;;;;;5086434;28;20291;-67
2022/10/19 02:37:56;;;;;;;9.88;2.80;;;28.30;57.70;;;;;;5098946;28;20552;-67
2022/10/19 02:40:23;;;;;;;13.52;2.22;;;28.20;73.20;;;;;;5097702;28;20467;-67
2022/10/19 02:42:59;;;;;;;10.45;2.20;;;28.10;56.40;;;;;;5088746;28;20093;-65
2022/10/19 02:45:30;;;;;;;10.07;2.90;;;28.10;57.00;;;;;;5089848;28;20725;-66
2022/10/19 02:48:04;;;;;;;18.15;2.75;;;27.90;57.20;;;;;;5089024;28;20105;-66
2022/10/19 02:50:31;;;;;;;10.80;2.50;;;27.80;57.30;;;;;;5089495;28;20536;-67
2022/10/19 02:53:00;;;;;;;14.77;3.00;;;27.80;57.50;;;;;;5088938;28;20437;-66
2022/10/19 02:55:29;;;;;;;9.63;3.35;;;27.80;57.50;;;;;;5089372;28;20525;-66
2022/10/19 02:57:56;;;;;;;10.80;3.28;;;27.60;57.20;;;;;;5089460;28;21152;-65
2022/10/19 03:00:22;;;;;;;16.38;2.90;;;27.70;57.40;;;;;;5094781;28;20090;-65
2022/10/19 03:02:49;;;;;;;17.77;2.90;;;27.60;57.50;;;;;;5091132;28;20543;-66
2022/10/19 03:05:15;;;;;;;22.17;2.67;;;27.60;57.30;;;;;;5089742;28;20070;-66
2022/10/19 03:07:42;;;;;;;14.23;2.85;;;27.60;57.50;;;;;;5096141;28;20063;-67
2022/10/19 03:10:09;;;;;;;12.90;3.08;;;27.50;57.70;;;;;;5090971;28;20086;-66
2022/10/19 03:12:35;;;;;;;12.00;3.20;;;27.50;57.80;;;;;;5089839;28;20532;-67
2022/10/19 03:15:01;;;;;;;17.80;3.30;;;27.40;57.90;;;;;;5089068;28;20140;-67
2022/10/19 03:17:28;;;;;;;8.40;3.00;;;27.30;57.50;;;;;;5096293;28;20074;-67
2022/10/19 03:19:54;;;;;;;16.80;3.28;;;27.30;57.70;;;;;;5089046;28;20089;-67
2022/10/19 03:22:21;;;;;;;20.35;3.70;;;27.20;57.90;;;;;;5093158;28;20078;-67
2022/10/19 03:24:47;;;;;;;18.05;3.10;;;27.20;57.90;;;;;;5088408;28;20149;-66
2022/10/19 03:27:13;;;;;;;13.85;2.60;;;27.20;57.70;;;;;;5089531;28;20073;-66
2022/10/19 03:29:40;;;;;;;18.42;3.38;;;27.10;58.30;;;;;;5084802;28;20100;-66
2022/10/19 03:32:06;;;;;;;19.50;3.00;;;27.10;58.10;;;;;;5091964;28;20076;-66
2022/10/19 03:34:33;;;;;;;18.17;2.67;;;27.00;58.70;;;;;;5089188;28;20072;-65
2022/10/19 03:36:59;;;;;;;21.25;4.35;;;27.00;59.10;;;;;;5088097;28;20064;-67
2022/10/19 03:39:26;;;;;;;16.70;3.75;;;26.90;59.40;;;;;;5088684;28;20074;-66
2022/10/19 03:41:52;;;;;;;24.30;4.18;;;26.90;61.50;;;;;;5090065;28;20401;-66
2022/10/19 03:44:18;;;;;;;28.42;4.18;;;26.90;61.50;;;;;;5090148;28;20057;-66
2022/10/19 03:46:45;;;;;;;28.85;4.05;;;26.80;61.30;;;;;;5089817;28;20066;-66
2022/10/19 03:49:11;;;;;;;23.02;3.80;;;26.60;87.30;;;;;;5087609;28;20092;-65
2022/10/19 03:51:38;;;;;;;14.57;3.28;;;26.60;62.00;;;;;;5092443;28;20082;-67
2022/10/19 03:54:07;;;;;;;23.75;3.45;;;26.60;62.00;;;;;;5087912;28;20079;-66
2022/10/19 03:56:34;;;;;;;20.63;3.40;;;26.60;61.50;;;;;;5091764;28;20080;-65
2022/10/19 03:59:03;;;;;;;25.80;3.78;;;26.50;60.90;;;;;;5094250;28;20072;-68
2022/10/19 04:01:38;;;;;;;19.90;3.50;;;26.50;62.00;;;;;;5094464;28;20170;-66
2022/10/19 04:04:07;;;;;;;13.10;2.65;;;26.40;62.50;;;;;;5092568;28;20067;-67
2022/10/19 04:06:36;;;;;;;30.90;3.90;;;26.40;61.80;;;;;;5092663;28;20067;-67
2022/10/19 04:09:04;;;;;;;14.98;2.92;;;26.40;62.10;;;;;;5094129;28;20525;-68
2022/10/19 04:11:32;;;;;;;16.30;3.33;;;26.40;62.40;;;;;;5091443;28;20075;-66
2022/10/19 04:13:59;;;;;;;15.18;3.90;;;26.40;61.70;;;;;;5104934;28;20075;-65
2022/10/19 04:16:27;;;;;;;13.43;3.40;;;26.30;62.90;;;;;;5097014;28;20115;-67
2022/10/19 04:18:54;;;;;;;9.95;3.00;;;26.30;63.40;;;;;;5098940;28;20589;-67
2022/10/19 04:21:32;;;;;;;17.95;4.45;;;26.20;62.70;;;;;;5096090;28;20094;-66
2022/10/19 04:24:04;;;;;;;19.00;4.80;;;26.20;63.20;;;;;;5090851;28;20074;-65
2022/10/19 04:26:31;;;;;;;17.95;5.43;;;26.10;63.40;;;;;;5098308;28;20099;-66
2022/10/19 04:28:59;;;;;;;32.53;6.30;;;26.10;63.70;;;;;;5095354;28;20068;-67
2022/10/19 04:31:27;;;;;;;19.83;6.43;;;26.00;63.60;;;;;;5089577;28;20105;-67
2022/10/19 04:33:54;;;;;;;16.13;5.22;;;26.50;84.30;;;;;;5096449;28;20178;-67
2022/10/19 04:36:20;;;;;;;15.25;4.80;;;25.90;66.30;;;;;;5091558;28;20520;-67
2022/10/19 04:38:47;;;;;;;22.70;5.00;;;25.80;65.20;;;;;;5090352;28;20117;-67
2022/10/19 04:41:15;;;;;;;19.20;4.80;;;25.80;65.30;;;;;;5092453;28;20091;-68
2022/10/19 04:43:45;;;;;;;25.10;4.65;;;25.80;65.50;;;;;;5096329;28;20073;-69
2022/10/19 04:46:14;;;;;;;23.42;3.88;;;25.70;66.10;;;;;;5092683;28;20083;-67
2022/10/19 04:48:41;;;;;;;30.35;5.20;;;25.70;66.90;;;;;;5090425;28;20080;-66
2022/10/19 04:51:08;;;;;;;17.70;4.28;;;25.70;67.40;;;;;;5091263;28;20080;-66
2022/10/19 04:53:37;;;;;;;25.85;5.00;;;25.70;67.30;;;;;;5091200;28;20082;-67
2022/10/19 04:56:06;;;;;;;26.45;5.07;;;25.70;67.10;;;;;;5091553;28;20071;-67
2022/10/19 04:58:32;;;;;;;16.63;4.05;;;25.60;67.00;;;;;;5091700;28;20158;-66
2022/10/19 05:00:59;;;;;;;19.48;4.00;;;25.50;67.20;;;;;;5092315;28;20578;-66
2022/10/19 05:03:25;;;;;;;20.00;4.40;;;25.50;68.90;;;;;;5092099;28;20087;-66
2022/10/19 05:05:52;;;;;;;18.52;4.15;;;25.40;68.20;;;;;;5094523;28;20102;-66
2022/10/19 05:08:18;;;;;;;25.55;3.70;;;25.40;68.20;;;;;;5090875;28;20094;-68
2022/10/19 05:10:44;;;;;;;30.08;7.13;;;25.30;68.90;;;;;;5092326;28;20071;-67
2022/10/19 05:13:11;;;;;;;24.30;6.47;;;25.20;90.70;;;;;;5091161;28;20082;-67
2022/10/19 05:15:37;;;;;;;29.02;5.00;;;24.60;90.90;;;;;;5090765;28;20155;-67
2022/10/19 05:18:04;;;;;;;30.02;5.95;;;25.20;69.10;;;;;;5094278;28;20087;-65
2022/10/19 05:20:30;;;;;;;24.58;5.03;;;25.20;69.70;;;;;;5091229;28;20084;-67
2022/10/19 05:22:56;;;;;;;27.63;5.38;;;25.10;71.00;;;;;;5092069;28;20229;-67
2022/10/19 05:25:23;;;;;;;36.53;8.38;;;25.10;69.80;;;;;;5089680;28;20069;-67
2022/10/19 05:27:53;;;;;;;36.90;15.40;;;25.10;70.00;;;;;;5095426;28;20525;-66
2022/10/19 05:30:20;;;;;;;36.28;12.80;;;25.10;69.60;;;;;;5094530;28;20095;-64
2022/10/19 05:32:47;;;;;;;35.60;13.55;;;25.00;70.40;;;;;;5088806;28;20183;-66
2022/10/19 05:35:17;;;;;;;29.45;12.15;;;25.00;70.50;;;;;;5090283;28;20133;-67
2022/10/19 05:37:43;;;;;;;31.83;10.00;;;24.90;70.60;;;;;;5089058;28;20568;-65
2022/10/19 05:40:10;;;;;;;33.50;7.45;;;24.90;71.40;;;;;;5090045;28;20098;-64
2022/10/19 05:42:36;;;;;;;42.22;7.72;;;24.90;70.50;;;;;;5090741;28;20072;-63
2022/10/19 05:45:03;;;;;;;28.42;7.10;;;24.90;71.40;;;;;;5090263;28;20432;-64
2022/10/19 05:47:31;;;;;;;27.60;6.68;;;24.90;72.70;;;;;;5090331;28;20084;-63
2022/10/19 05:49:57;;;;;;;25.95;6.05;;;24.80;71.40;;;;;;5089863;28;20126;-62
2022/10/19 05:52:23;;;;;;;33.05;6.40;;;24.80;72.90;;;;;;5089614;28;20526;-61
2022/10/19 05:54:50;;;;;;;37.22;6.20;;;24.80;72.50;;;;;;5088638;28;20069;-64
2022/10/19 05:57:16;;;;;;;31.92;6.47;;;24.70;72.20;;;;;;5090533;28;20130;-64
2022/10/19 05:59:42;;;;;;;25.50;6.35;;;24.70;72.70;;;;;;5089021;28;20079;-63
2022/10/19 06:02:13;;;;;;;25.02;5.20;;;24.70;72.90;;;;;;5089916;28;20092;-61
2022/10/19 06:04:39;;;;;;;31.33;6.38;;;24.60;73.50;;;;;;5088566;28;20075;-58
2022/10/19 06:07:05;;;;;;;86.53;8.52;;;24.60;73.40;;;;;;5090292;28;20076;-60
2022/10/19 06:09:35;;;;;;;38.67;6.57;;;24.60;73.70;;;;;;5089631;28;20150;-62
2022/10/19 06:12:02;;;;;;;65.60;6.85;;;24.60;74.80;;;;;;5088191;28;20072;-64
2022/10/19 06:14:29;;;;;;;24.02;5.00;;;24.50;74.60;;;;;;5090599;28;20076;-62
2022/10/19 06:16:55;;;;;;;27.42;4.70;;;24.50;75.10;;;;;;5089697;28;20099;-65
2022/10/19 06:19:21;;;;;;;36.55;6.10;;;24.60;75.10;;;;;;5089839;28;20081;-64
2022/10/19 06:21:48;;;;;;;28.83;5.13;;;24.60;74.60;;;;;;5089039;28;20069;-65
2022/10/19 06:24:14;;;;;;;25.85;5.10;;;24.60;75.60;;;;;;5089860;28;20557;-64
2022/10/19 06:26:40;;;;;;;37.97;6.00;;;24.50;75.30;;;;;;5090906;28;20488;-66
2022/10/19 06:29:07;;;;;;;28.42;6.32;;;24.50;75.10;;;;;;5089796;28;20100;-65
2022/10/19 06:31:35;;;;;;;46.42;6.40;;;24.50;74.80;;;;;;5087757;28;20130;-65
2022/10/19 06:34:02;;;;;;;64.63;6.88;;;24.50;75.00;;;;;;5087529;28;20108;-66
2022/10/19 06:36:30;;;;;;;24.73;6.45;;;24.60;75.30;;;;;;5095443;28;20522;-65
2022/10/19 06:38:58;;;;;;;30.02;6.28;;;24.60;75.10;;;;;;5089032;28;20162;-65
2022/10/19 06:41:25;;;;;;;42.10;7.60;;;24.50;75.00;;;;;;5089709;28;20175;-65
2022/10/19 06:43:53;;;;;;;30.05;6.20;;;24.50;75.80;;;;;;5092362;28;20069;-64
2022/10/19 06:46:22;;;;;;;40.05;7.18;;;24.50;75.30;;;;;;5088107;28;20179;-65
2022/10/19 06:49:01;;;;;;;40.67;7.20;;;24.50;75.90;;;;;;5088597;28;20073;-64
2022/10/19 06:51:30;;;;;;;31.35;6.57;;;24.50;76.00;;;;;;5087171;28;20079;-65
2022/10/19 06:53:57;;;;;;;39.40;6.85;;;24.40;76.70;;;;;;5087263;28;20519;-64
2022/10/19 06:56:24;;;;;;;41.88;6.97;;;24.30;77.10;;;;;;5094983;28;20605;-65
2022/10/19 06:58:51;;;;;;;40.92;7.90;;;24.30;77.50;;;;;;5087930;28;20136;-63
2022/10/19 07:01:18;;;;;;;45.22;7.30;;;24.30;77.60;;;;;;5088658;28;20175;-65
2022/10/19 07:03:44;;;;;;;30.92;6.55;;;24.30;77.20;;;;;;5088245;28;20085;-65
2022/10/19 07:06:12;;;;;;;34.30;6.50;;;24.30;77.50;;;;;;5090141;28;20486;-65
2022/10/19 07:08:40;;;;;;;41.83;7.78;;;24.30;77.70;;;;;;5090317;28;20061;-64
2022/10/19 07:11:10;;;;;;;41.92;6.97;;;24.20;78.10;;;;;;5086347;28;20142;-65
2022/10/19 07:13:36;;;;;;;36.13;7.20;;;24.20;78.70;;;;;;5089312;28;20171;-65
2022/10/19 07:16:07;;;;;;;35.78;6.88;;;24.10;77.90;;;;;;5088700;28;20468;-65
2022/10/19 07:18:35;;;;;;;46.00;7.75;;;24.10;78.80;;;;;;5089618;28;20080;-65
2022/10/19 07:21:04;;;;;;;34.38;7.40;;;23.90;79.60;;;;;;5090548;28;20486;-65
2022/10/19 07:23:32;;;;;;;35.50;7.13;;;24.00;79.60;;;;;;5092716;28;20072;-64
2022/10/19 07:26:02;;;;;;;47.67;7.95;;;23.90;80.40;;;;;;5088141;28;20084;-65
2022/10/19 07:28:30;;;;;;;43.83;8.70;;;24.00;80.40;;;;;;5089995;28;20081;-65
2022/10/19 07:30:56;;;;;;;42.33;7.65;;;23.90;79.80;;;;;;5087692;28;20073;-63
2022/10/19 07:33:23;;;;;;;45.50;9.05;;;23.90;80.30;;;;;;5085078;28;20159;-65
2022/10/19 07:35:49;;;;;;;41.88;9.25;;;23.90;80.50;;;;;;5088183;28;20134;-65
2022/10/19 07:38:16;;;;;;;54.30;10.45;;;23.90;80.30;;;;;;5088285;28;20096;-65
2022/10/19 07:40:42;;;;;;;45.83;9.60;;;23.80;80.30;;;;;;5090191;28;20084;-65
2022/10/19 07:43:09;;;;;;;50.92;10.32;;;23.90;81.50;;;;;;5088237;28;20455;-65
2022/10/19 07:45:35;;;;;;;54.58;11.30;;;23.80;80.10;;;;;;5088734;28;20095;-66
2022/10/19 07:48:01;;;;;;;45.85;11.63;;;23.80;81.00;;;;;;5088719;28;20158;-64
2022/10/19 07:50:28;;;;;;;55.00;11.48;;;23.80;80.10;;;;;;5089053;28;20076;-64
2022/10/19 07:52:54;;;;;;;50.35;11.27;;;23.80;80.40;;;;;;5088847;28;20522;-65
2022/10/19 07:55:21;;;;;;;58.17;12.55;;;23.80;80.20;;;;;;5091013;28;20104;-65
2022/10/19 07:57:49;;;;;;;52.50;11.63;;;23.80;80.40;;;;;;5094095;28;20082;-65
2022/10/19 08:00:16;;;;;;;46.50;11.20;;;23.70;80.70;;;;;;5090265;28;20121;-66
2022/10/19 08:02:43;;;;;;;50.50;10.20;;;23.70;80.20;;;;;;5087692;28;20069;-65
2022/10/19 08:05:10;;;;;;;51.58;10.90;;;23.70;81.10;;;;;;5088139;28;20071;-66
2022/10/19 08:07:36;;;;;;;60.08;11.98;;;23.70;80.60;;;;;;5089987;28;20067;-66
2022/10/19 08:10:03;;;;;;;43.08;11.48;;;23.60;80.90;;;;;;5088804;28;20548;-65
2022/10/19 08:12:30;;;;;;;58.17;11.68;;;23.60;81.20;;;;;;5094664;28;20098;-66
2022/10/19 08:14:56;;;;;;;49.90;12.18;;;23.60;81.00;;;;;;5088811;28;20083;-65
2022/10/19 08:17:23;;;;;;;43.67;10.75;;;23.60;81.10;;;;;;5088274;28;20119;-65
2022/10/19 08:19:49;;;;;;;53.88;11.73;;;23.50;81.70;;;;;;5089203;28;20087;-65
2022/10/19 08:22:15;;;;;;;51.15;12.40;;;23.50;82.30;;;;;;5088900;28;20071;-64
2022/10/19 08:24:42;;;;;;;55.55;12.55;;;23.50;82.30;;;;;;5086745;28;20069;-63
2022/10/19 08:27:08;;;;;;;47.53;11.52;;;23.50;82.20;;;;;;5087357;28;20068;-64
2022/10/19 08:29:34;;;;;;;38.75;10.63;;;23.50;82.70;;;;;;5087358;28;20444;-64
2022/10/19 08:32:01;;;;;;;46.97;11.05;;;23.40;81.90;;;;;;5085782;28;20056;-63
2022/10/19 08:34:27;;;;;;;54.80;11.68;;;23.40;82.50;;;;;;5084318;28;20079;-65
2022/10/19 08:36:53;;;;;;;45.88;11.05;;;23.40;82.30;;;;;;5088011;28;20067;-65
2022/10/19 08:39:20;;;;;;;53.75;10.90;;;23.30;82.50;;;;;;5088552;28;20439;-65
2022/10/19 08:41:55;;;;;;;41.20;10.55;;;23.40;82.30;;;;;;5087391;28;20084;-65
2022/10/19 08:44:45;;;;;;;44.15;10.00;;;23.40;82.20;;;;;;5087288;28;20150;-65
2022/10/19 08:47:30;;;;;;;44.15;8.45;;;23.30;82.40;;;;;;5090364;28;20068;-64
2022/10/19 08:49:57;;;;;;;43.75;9.25;;;23.30;81.40;;;;;;5090566;28;20098;-65
2022/10/19 08:52:31;;;;;;;32.50;8.43;;;23.70;99.30;;;;;;5091214;28;20179;-65
2022/10/19 08:54:59;;;;;;;19.83;5.80;;;23.20;90.40;;;;;;5093099;28;20118;-65
2022/10/19 08:57:35;;;;;;;24.60;6.53;;;23.80;97.40;;;;;;5090418;28;20085;-64
2022/10/19 09:00:23;;;;;;;25.27;5.15;;;23.50;98.70;;;;;;5091343;28;20094;-64
2022/10/19 09:03:12;;;;;;;15.50;5.75;;;23.50;98.30;;;;;;5091102;28;20074;-63
2022/10/19 09:06:04;;;;;;;22.75;5.70;;;23.70;97.90;;;;;;5091296;28;20112;-65
2022/10/19 09:08:32;;;;;;;19.73;5.20;;;23.10;79.50;;;;;;5085993;28;20089;-65
2022/10/19 09:10:59;;;;;;;26.02;5.63;;;23.10;80.20;;;;;;5091232;28;20073;-65
2022/10/19 09:13:43;;;;;;;18.45;4.90;;;23.10;80.30;;;;;;5089378;28;20137;-65
2022/10/19 09:16:15;;;;;;;13.80;5.13;;;23.30;96.40;;;;;;5090807;28;20106;-64
2022/10/19 09:18:43;;;;;;;11.90;4.70;;;23.20;96.90;;;;;;5095279;28;20099;-65
2022/10/19 09:21:30;;;;;;;22.90;5.05;;;22.90;79.60;;;;;;5090524;28;20087;-64
2022/10/19 09:24:02;;;;;;;;;;;23.00;80.40;;;;;;5091528;28;20074;-64
2022/10/19 09:26:32;;;;;;;21.60;4.57;;;23.10;98.20;;;;;;5089164;28;20051;-63
2022/10/19 09:29:24;;;;;;;20.25;5.25;;;22.90;80.50;;;;;;5090709;28;20061;-64
2022/10/19 09:31:54;;;;;;;20.75;4.97;;;22.90;97.60;;;;;;5089575;28;20080;-64
2022/10/19 09:34:30;;;;;;;13.68;4.22;;;23.00;79.80;;;;;;5086848;28;20068;-65
2022/10/19 09:36:58;;;;;;;13.25;3.97;;;23.00;79.00;;;;;;5092021;28;20086;-64
2022/10/19 09:39:25;;;;;;;13.45;3.58;;;22.90;78.80;;;;;;5089738;28;20067;-65
2022/10/19 09:42:29;;;;;;;14.73;4.43;;;23.00;79.10;;;;;;5089291;28;20437;-64
2022/10/19 09:44:58;;;;;;;18.67;4.22;;;22.90;79.20;;;;;;5088540;28;20094;-64
2022/10/19 09:47:35;;;;;;;16.70;3.60;;;22.90;79.40;;;;;;5089645;28;20084;-63
2022/10/19 09:50:15;;;;;;;15.68;3.88;;;22.90;79.10;;;;;;5089935;28;20084;-65
2022/10/19 09:52:44;;;;;;;13.05;3.55;;;22.90;79.50;;;;;;5091268;28;20075;-64
2022/10/19 09:55:13;;;;;;;20.98;3.92;;;22.80;80.00;;;;;;5095585;28;20094;-65
2022/10/19 09:57:43;;;;;;;19.73;4.15;;;22.20;98.20;;;;;;5089486;28;20087;-64
2022/10/19 10:00:18;;;;;;;16.50;4.20;;;22.70;99.30;;;;;;5090098;28;20090;-64
2022/10/19 10:02:54;;;;;;;15.95;4.13;;;22.80;81.00;;;;;;5088975;28;20073;-64
2022/10/19 10:05:45;;;;;;;14.20;4.47;;;22.70;99.90;;;;;;5089969;28;20060;-64
2022/10/19 10:08:18;;;;;;;18.30;4.25;;;23.00;99.20;;;;;;5091169;28;20074;-64
2022/10/19 10:10:58;;;;;;;18.05;4.57;;;22.70;80.30;;;;;;5089998;28;20555;-64
2022/10/19 10:13:26;;;;;;;19.13;4.47;;;22.70;99.40;;;;;;5089549;28;20091;-62
2022/10/19 10:16:02;;;;;;;14.57;4.20;;;23.20;97.00;;;;;;5090912;28;20107;-65
2022/10/19 10:18:29;;;;;;;15.98;4.35;;;22.90;99.80;;;;;;5091648;28;20533;-65
2022/10/19 10:21:00;;;;;;;24.38;4.93;;;22.70;80.10;;;;;;5090991;28;20099;-63
2022/10/19 10:23:30;;;;;;;16.40;4.75;;;22.40;87.50;;;;;;5089770;28;20557;-64
2022/10/19 10:25:58;;;;;;;14.07;4.38;;;23.10;95.00;;;;;;5088976;28;20112;-65
2022/10/19 10:28:27;;;;;;;10.52;4.47;;;22.50;81.50;;;;;;5104427;28;20065;-65
2022/10/19 10:31:03;;;;;;;16.45;4.65;;;22.20;99.80;;;;;;5090495;28;20106;-64
2022/10/19 10:33:32;;;;;;;12.15;4.60;;;22.60;90.10;;;;;;5089158;28;20083;-66
2022/10/19 10:36:07;;;;;;;17.70;4.13;;;22.50;81.90;;;;;;5085984;28;20533;-65
2022/10/19 10:38:42;;;;;;;11.77;4.22;;;22.40;82.20;;;;;;5088865;28;20082;-65
2022/10/19 10:41:16;;;;;;;11.90;4.07;;;22.50;82.40;;;;;;5089249;28;20113;-64
2022/10/19 10:43:54;;;;;;;9.93;4.05;;;22.50;82.60;;;;;;5088712;28;20524;-65
2022/10/19 10:46:26;;;;;;;12.75;4.32;;;22.30;82.60;;;;;;5087262;28;20066;-65
2022/10/19 10:48:58;;;;;;;12.27;3.78;;;22.40;83.30;;;;;;5089285;28;20078;-66
2022/10/19 10:51:24;;;;;;;20.23;5.07;;;22.40;82.90;;;;;;5091651;28;20083;-65
2022/10/19 10:54:05;;;;;;;12.98;3.95;;;22.30;83.70;;;;;;5089331;28;20075;-66
2022/10/19 10:56:32;;;;;;;8.77;3.67;;;22.30;82.60;;;;;;5089678;28;20934;-64
2022/10/19 10:59:25;;;;;;;10.00;3.45;;;22.40;94.20;;;;;;5088976;28;20517;-64
2022/10/19 11:02:08;;;;;;;14.40;3.50;;;22.30;82.70;;;;;;5087928;28;20130;-64
2022/10/19 11:04:39;;;;;;;9.77;3.60;;;22.40;82.40;;;;;;5087880;28;20457;-64
2022/10/19 11:07:17;;;;;;;7.75;3.35;;;22.40;82.30;;;;;;5088267;28;20075;-64
2022/10/19 11:09:53;;;;;;;12.75;3.50;;;22.30;81.90;;;;;;5087526;28;20111;-64
2022/10/19 11:12:35;;;;;;;10.07;3.72;;;22.30;82.00;;;;;;5090157;28;20540;-63
2022/10/19 11:15:19;;;;;;;7.32;2.70;;;22.40;81.50;;;;;;5088146;28;20071;-64
2022/10/19 11:18:02;;;;;;;5.25;3.08;;;22.50;97.40;;;;;;5087261;28;21267;-64
2022/10/19 11:20:31;;;;;;;6.80;3.00;;;22.10;94.80;;;;;;5092106;28;20161;-64
2022/10/19 11:23:18;;;;;;;13.15;3.28;;;22.10;97.50;;;;;;5086795;28;20071;-62
2022/10/19 11:26:16;;;;;;;6.43;3.22;;;22.40;97.80;;;;;;5087713;28;20071;-64
2022/10/19 11:28:49;;;;;;;10.55;2.95;;;22.80;97.80;;;;;;5015821;28;20484;-64
2022/10/19 11:31:44;;;;;;;7.95;3.28;;;22.40;78.60;;;;;;5088421;28;20523;-64
2022/10/19 11:34:44;;;;;;;15.27;2.90;;;22.20;98.00;;;;;;5085098;28;20095;-65
2022/10/19 11:37:20;;;;;;;13.30;2.70;;;22.20;99.00;;;;;;5087805;28;20078;-61
2022/10/19 11:39:46;;;;;;;4.00;2.40;;;;;;;;;;5088171;28;20656;-63
2022/10/19 11:42:22;;;;;;;7.35;2.63;;;21.80;99.90;;;;;;5089022;28;20070;-65
2022/10/19 11:45:19;;;;;;;7.73;2.60;;;22.30;79.80;;;;;;5088559;28;20408;-64
2022/10/19 11:48:08;;;;;;;7.85;3.58;;;22.60;99.90;;;;;;5091031;28;20057;-64
2022/10/19 11:50:54;;;;;;;6.07;2.30;;;22.20;79.40;;;;;;5087127;28;20065;-62
2022/10/19 11:53:42;;;;;;;7.18;2.50;;;21.80;98.50;;;;;;5087828;28;20055;-65
2022/10/19 11:56:18;;;;;;;9.15;2.97;;;22.10;99.90;;;;;;5090499;28;20048;-64
2022/10/19 11:58:52;;;;;;;10.85;2.40;;;22.20;79.30;;;;;;5086502;28;20382;-64
2022/10/19 12:01:40;;;;;;;9.75;2.60;;;22.60;99.90;;;;;;5087430;28;20123;-63
2022/10/19 12:04:06;;;;;;;11.68;2.78;;;;;;;;;;5087077;28;20787;-63
2022/10/19 12:06:36;;;;;;;9.15;2.20;;;22.30;78.90;;;;;;5089266;28;20067;-63
2022/10/19 12:09:24;;;;;;;5.82;1.90;;;22.30;79.40;;;;;;5091516;28;20165;-65
2022/10/19 12:12:08;;;;;;;5.63;1.92;;;22.00;99.90;;;;;;5093939;28;20109;-64
2022/10/19 12:14:39;;;;;;;6.43;2.00;;;22.30;78.20;;;;;;5092221;28;20057;-64
2022/10/19 12:17:13;;;;;;;7.45;2.15;;;22.30;99.90;;;;;;5088431;28;20133;-64
2022/10/19 12:19:45;;;;;;;7.47;2.13;;;22.40;99.90;;;;;;5089141;28;20051;-63
2022/10/19 12:22:17;;;;;;;4.22;1.98;;;22.40;94.90;;;;;;5091938;28;20049;-64
2022/10/19 12:24:43;;;;;;;5.75;2.05;;;21.80;99.90;;;;;;5091510;28;20151;-64
2022/10/19 12:27:16;;;;;;;6.45;2.30;;;22.20;99.90;;;;;;5094554;28;20057;-64
2022/10/19 12:29:46;;;;;;;7.53;2.30;;;22.60;99.90;;;;;;5098278;28;20058;-63
2022/10/19 12:32:16;;;;;;;10.05;2.63;;;22.80;99.90;;;;;;5095518;28;20055;-64
2022/10/19 12:35:16;;;;;;;11.70;2.50;;;22.20;78.90;;;;;;5089364;28;20517;-64
2022/10/19 12:37:56;;;;;;;11.00;2.60;;;22.20;99.90;;;;;;5087467;28;20129;-64
2022/10/19 12:40:48;;;;;;;9.15;2.95;;;22.70;99.90;;;;;;5091035;28;20066;-64
2022/10/19 12:44:01;;;;;;;9.77;2.90;;;22.20;79.60;;;;;;5091810;28;20034;-65
2022/10/19 12:46:27;;;;;;;11.77;2.95;;;;;;;;;;5095680;28;20061;-64
2022/10/19 12:49:28;;;;;;;9.05;2.40;;;22.10;79.50;;;;;;5091350;28;20055;-64
2022/10/19 12:51:58;;;;;;;9.98;2.60;;;22.10;86.50;;;;;;5089778;28;20138;-65
2022/10/19 12:54:27;;;;;;;10.27;2.22;;;21.90;99.90;;;;;;5091324;28;20064;-64
2022/10/19 12:56:55;;;;;;;13.27;3.05;;;22.10;80.50;;;;;;5100060;28;20099;-65
2022/10/19 12:59:29;;;;;;;12.23;2.20;;;21.90;99.90;;;;;;5091966;28;20052;-64
2022/10/19 13:01:56;;;;;;;7.90;2.17;;;22.70;99.90;;;;;;5093104;28;20150;-64
2022/10/19 13:04:22;;;;;;;9.88;2.28;;;;;;;;;;5091214;28;20062;-64